RELEVES METEO NEUVILLE
Donnes mto: Actuelle jeudi, 02/12/2021 14:15
Date Horaire Temp. E. Hum. E. P.atmo. Pluie Vent Direction Direction P. de rose Temp au vent Rafales
02/12/2021 14:15 3,5 C 90 % 1006,6 hPa 0,0 mm 1,1 km/h (1 Bft) O 260 2,0 C 3,5 C 8,0 km/h (2 Bft)
02/12/2021 14:10 3,5 C 90 % 1006,6 hPa 0,0 mm 0,4 km/h (0 Bft) N-NO 333 2,0 C 3,5 C 4,8 km/h (1 Bft)
02/12/2021 14:05 3,4 C 89 % 1006,6 hPa 0,0 mm 0,0 km/h (0 Bft) N-NO 333 1,8 C 3,4 C 1,6 km/h (1 Bft)
02/12/2021 14:00 3,6 C 88 % 1006,6 hPa 0,0 mm 1,0 km/h (0 Bft) N-NO 331 1,8 C 3,6 C 8,0 km/h (2 Bft)
02/12/2021 13:55 3,7 C 87 % 1006,8 hPa 0,2 mm 3,6 km/h (1 Bft) NO 318 1,7 C 3,7 C 14,5 km/h (3 Bft)
02/12/2021 13:50 3,8 C 87 % 1006,7 hPa 0,0 mm 3,4 km/h (1 Bft) E-SE 121 1,8 C 3,8 C 22,5 km/h (4 Bft)
02/12/2021 13:45 3,7 C 87 % 1006,4 hPa 0,0 mm 1,2 km/h (1 Bft) NO 309 1,7 C 3,7 C 8,0 km/h (2 Bft)
02/12/2021 13:40 3,7 C 87 % 1006,5 hPa 0,0 mm 0,7 km/h (0 Bft) O-NO 298 1,7 C 3,7 C 8,0 km/h (2 Bft)
02/12/2021 13:35 3,7 C 87 % 1006,4 hPa 0,0 mm 1,8 km/h (1 Bft) N-NO 340 1,7 C 3,7 C 9,7 km/h (2 Bft)
02/12/2021 13:30 3,7 C 87 % 1006,5 hPa 0,0 mm 0,3 km/h (0 Bft) NO 305 1,7 C 3,7 C 8,0 km/h (2 Bft)
02/12/2021 13:25 3,7 C 87 % 1006,3 hPa 0,0 mm 1,4 km/h (1 Bft) N 5 1,7 C 3,7 C 16,1 km/h (3 Bft)
02/12/2021 13:20 3,6 C 87 % 1006,3 hPa 0,0 mm 1,0 km/h (0 Bft) O-NO 297 1,6 C 3,6 C 9,7 km/h (2 Bft)
02/12/2021 13:15 3,5 C 87 % 1006,3 hPa 0,0 mm 2,7 km/h (1 Bft) N-NO 336 1,5 C 3,5 C 12,9 km/h (3 Bft)
02/12/2021 13:10 3,5 C 87 % 1006,4 hPa 0,0 mm 1,4 km/h (1 Bft) O-SO 252 1,5 C 3,5 C 11,3 km/h (2 Bft)
02/12/2021 13:05 3,4 C 87 % 1006,3 hPa 0,0 mm 2,4 km/h (1 Bft) N-NO 331 1,4 C 3,4 C 11,3 km/h (2 Bft)
02/12/2021 13:00 3,3 C 87 % 1006,3 hPa 0,0 mm 0,6 km/h (0 Bft) O-NO 293 1,3 C 3,3 C 4,8 km/h (1 Bft)
02/12/2021 12:55 3,3 C 86 % 1006,3 hPa 0,0 mm 0,7 km/h (0 Bft) O-NO 296 1,2 C 3,3 C 11,3 km/h (2 Bft)
02/12/2021 12:50 3,3 C 85 % 1006,4 hPa 0,0 mm 1,6 km/h (1 Bft) N-NE 21 1,0 C 3,3 C 12,9 km/h (3 Bft)
02/12/2021 12:45 3,4 C 84 % 1006,4 hPa 0,0 mm 4,5 km/h (1 Bft) N-NO 331 1,0 C 3,4 C 24,1 km/h (4 Bft)
02/12/2021 12:40 3,5 C 84 % 1006,5 hPa 0,0 mm 4,7 km/h (1 Bft) O-SO 246 1,1 C 3,5 C 20,9 km/h (4 Bft)
02/12/2021 12:35 3,6 C 83 % 1006,4 hPa 0,0 mm 0,9 km/h (0 Bft) NO 311 1,0 C 3,6 C 11,3 km/h (2 Bft)
_ Min-Heure 08:35 11:25 00:00 - 00:05 - - 11:55 08:35 00:05
Minimum _ 2,6 C 81 % 1001,2 hPa - 0,0 km/h (0 Bft) - - 0,7 C 2,6 C 0,0 km/h (0 Bft)
_ Max-Heure 00:00 01:30 13:55 00:00 12:40 - - 01:35 00:00 12:45
Maximum _ 5,7 C 94 % 1006,8 hPa 0,2 mm 4,7 km/h
O-SO (1 Bft)
- - 4,6 C 5,7 C 24,1 km/h
O (4 Bft)
Moyenne _ 3,9 C 90 % 1004,4 hPa #0,4 mm 1,5 km/h (1 Bft) N-NO - 2,5 C 3,9 C 10,1 km/h (2 Bft)
NEUVILLE ST REMY